4. Juli 2022

Uhrzeit Code Wetter Temp. Sichtweite Wolkendecke Wind METAR/SPECI
7:00 pm
V
77 °F 15 mi 23.000 ft 280° 280° 6 kt METAR CYND 042300Z 28006KT 15SM FEW065 FEW095 FEW170 BKN230 25/11 A3004 RMK CU1AC1AC1CI6 CU TR AC TR SLP174 DENSITY ALT 1300FT
6:00 pm
V
77 °F 15 mi 23.000 ft 290° 290° 8 kt METAR CYND 042200Z 29008KT 15SM FEW070 BKN230 25/09 A3004 RMK CU1CI7 CU TR SLP176 DENSITY ALT 1300FT
5:00 pm
V
79 °F 15 mi 25.000 ft 320° 320° 8 kt METAR CYND 042100Z 32008KT 15SM FEW078 BKN250 26/08 A3005 RMK CU2CI4 SLP179 DENSITY ALT 1400FT
4:00 pm
V
79 °F 15 mi 25.000 ft 230° 230° 9 - 18 kt METAR CYND 042000Z 23009G18KT 210V300 15SM SCT074 BKN250 26/08 A3006 RMK CU3CI3 SLP182 DENSITY ALT 1400FT
3:00 pm
V
77 °F 15 mi 25.000 ft 310° 310° 7 kt METAR CYND 041900Z 31007KT 260V340 15SM SCT071 BKN250 25/09 A3007 RMK CU4CI1 SLP186 DENSITY ALT 1300FT
2:28 pm
V
79 °F 15 mi - 250° 250° 11 kt METAR CYND 041828Z 25011KT 230V340 15SM SCT069 SCT250 26/09 A3008 RMK CU4CI1 CI TR WSHFT 1822 SLP188 DENSITY ALT 1400FT
2:00 pm
V
77 °F 15 mi - Var Var 8 - 22 kt METAR CYND 041800Z VRB08G22KT 15SM SCT067 SCT250 25/09 A3008 RMK CU4CI1 CI TR SLP189 DENSITY ALT 1300FT
1:00 pm
V
77 °F 15 mi - 230° 230° 9 kt METAR CYND 041700Z 23009KT 160V260 15SM SCT058 25/10 A3009 RMK CU4 SLP192 DENSITY ALT 1200FT
12:00 pm
V
75 °F 15 mi - 240° 240° 3 kt METAR CYND 041600Z 24003KT 15SM SCT061 24/10 A3011 RMK CU3 SLP198 DENSITY ALT 1100FT
11:00 am
V
73 °F 15 mi - Var Var 2 kt METAR CYND 041500Z VRB02KT 15SM FEW050 FEW090 23/10 A3012 RMK CU1AC1 CU TR AC TR SLP203 DENSITY ALT 1100FT
10:00 am
V
70 °F 15 mi - Var Var 2 kt METAR CYND 041400Z VRB02KT 15SM FEW090 FEW220 21/10 A3013 RMK AC1CI1 AC TR CI TR SLP206 DENSITY ALT 800FT
9:00 am
V
68 °F 15 mi - Var Var 2 kt METAR CYND 041300Z VRB02KT 15SM FEW100 FEW220 20/12 A3013 RMK AC1CI1 AC TR SLP205 DENSITY ALT 600FT
8:00 am
V
63 °F 15 mi - Var Var 2 kt METAR CYND 041200Z VRB02KT 15SM FEW180 17/13 A3012 RMK AC1 AC TR SLP203 DENSITY ALT 300FT
7:00 am
V
57 °F 15 mi - 230° 230° 2 kt METAR CYND 041100Z 23002KT 15SM FEW180 FEW240 14/12 A3013 RMK AC1CI1 AC TR CI TR SLP204

3. Juli 2022

Uhrzeit Code Wetter Temp. Sichtweite Wolkendecke Wind METAR/SPECI
9:00 pm
V
64 °F 15 mi 11.000 ft 290° 290° 4 kt METAR CYND 040100Z 29004KT 15SM BKN110 BKN220 18/11 A3004 RMK AC5CI1 LAST STFD OBS/NXT 041100Z SLP175 DENSITY ALT 500FT
8:00 pm
V
68 °F 15 mi 24.000 ft 290° 290° 7 kt METAR CYND 040000Z 29007KT 15SM SCT097 SCT120 BKN240 20/10 A3004 RMK AC3AC1CI1 SLP176 DENSITY ALT 800FT
7:00 pm
V
72 °F 15 mi 22.000 ft 310° 310° 9 - 16 kt METAR CYND 032300Z 31009G16KT 15SM SCT079 SCT100 BKN220 22/08 A3003 RMK AC3AC1CI1 SLP173 DENSITY ALT 1000FT
6:00 pm
V
73 °F 15 mi 9.000 ft 270° 270° 12 - 18 kt METAR CYND 032200Z 27012G18KT 15SM SCT075 BKN090 BKN220 23/09 A3001 RMK CU3AC2CI1 SLP165 DENSITY ALT 1200FT
5:00 pm
V
75 °F 15 mi 25.000 ft 260° 260° 13 - 19 kt METAR CYND 032100Z 26013G19KT 15SM SCT074 SCT220 BKN250 24/08 A3001 RMK CU3CC1CI2 SLP165 DENSITY ALT 1300FT
4:00 pm
V
75 °F 15 mi 25.000 ft 250° 250° 10 - 17 kt METAR CYND 032000Z 25010G17KT 230V290 15SM SCT067 SCT085 BKN250 24/08 A3001 RMK CU3AC1CI1 SLP164 DENSITY ALT 1300FT
3:00 pm
V
72 °F 15 mi 8.300 ft 300° 300° 9 - 15 kt METAR CYND 031900Z 30009G15KT 15SM SCT064 BKN083 BKN250 22/09 A3001 RMK CU4AC1CI1 CI TR SLP166 DENSITY ALT 1100FT
2:00 pm
V
73 °F 15 mi - 290° 290° 9 - 15 kt METAR CYND 031800Z 29009G15KT 15SM SCT065 SCT250 23/10 A3003 RMK CU4CI1 CI TR SLP170 DENSITY ALT 1100FT
1:00 pm
V
73 °F 15 mi - 300° 300° 8 - 16 kt METAR CYND 031700Z 30008G16KT 270V330 15SM FEW061 FEW250 23/09 A3003 RMK CU2CI1 CI TR SLP171 DENSITY ALT 1100FT
12:00 pm
V
72 °F 15 mi - 270° 270° 6 - 17 kt METAR CYND 031600Z 27006G17KT 230V330 15SM FEW055 FEW250 22/10 A3003 RMK CU1CI1 CI TR SLP171 DENSITY ALT 1000FT
11:00 am
V
70 °F 15 mi - 290° 290° 10 - 19 kt METAR CYND 031500Z 29010G19KT 270V340 15SM FEW047 21/09 A3003 RMK CU1 CU TR SLP172 DENSITY ALT 900FT
10:00 am
V
68 °F 15 mi - 300° 300° 10 - 16 kt METAR CYND 031400Z 30010G16KT 270V340 15SM FEW045 FEW270 20/09 A3003 RMK CU1CI1 CU TR CI TR SLP171 DENSITY ALT 800FT
9:00 am
V
68 °F 15 mi - 320° 320° 8 kt METAR CYND 031300Z 32008KT 280V340 15SM FEW040 FEW100 FEW260 20/10 A3002 RMK CF1AC1CI1 CF TR AC TR CI TR SLP169 DENSITY ALT 700FT
8:00 am
V
64 °F 15 mi - 290° 290° 6 kt METAR CYND 031200Z 29006KT 15SM FEW070 FEW260 18/11 A3001 RMK AC1CI1 AC TR CI TR SLP165 DENSITY ALT 600FT
7:00 am
V
59 °F 15 mi - 240° 240° 2 kt METAR CYND 031100Z 24002KT 15SM FEW070 FEW150 15/11 A3000 RMK AC1AC1 AC TR SLP159

2. Juli 2022

Uhrzeit Code Wetter Temp. Sichtweite Wolkendecke Wind METAR/SPECI
9:00 pm
V
68 °F 15 mi - 280° 280° 7 kt METAR CYND 030100Z 28007KT 15SM FEW074 20/09 A2983 RMK AC1 LAST STFD OBS/NXT 031100Z SLP103 DENSITY ALT 900FT
8:00 pm
V
73 °F 15 mi - 280° 280° 8 kt METAR CYND 030000Z 28008KT 15SM FEW075 23/09 A2981 RMK AC1 SLP097 DENSITY ALT 1400FT
7:00 pm
V
79 °F 15 mi - 270° 270° 15 - 22 kt METAR CYND 022300Z 27015G22KT 15SM FEW076 26/08 A2980 RMK CU2 SLP094 DENSITY ALT 1700FT
6:00 pm
V
81 °F 15 mi - 270° 270° 11 - 21 kt METAR CYND 022200Z 27011G21KT 15SM SCT078 27/10 A2980 RMK CU3 SLP093 DENSITY ALT 1800FT
5:00 pm
V
81 °F 15 mi - 270° 270° 17 kt METAR CYND 022100Z 27017KT 15SM SCT077 27/09 A2980 RMK CU3 SLP092 DENSITY ALT 1800FT
4:00 pm
V
82 °F 15 mi - 260° 260° 17 - 29 kt METAR CYND 022000Z 26017G29KT 15SM SCT074 28/09 A2980 RMK CU4 SLP093 DENSITY ALT 1900FT
3:00 pm
V
81 °F 15 mi 7.000 ft 260° 260° 10 - 20 kt METAR CYND 021900Z 26010G20KT 210V270 15SM BKN070 BKN100 27/12 A2980 RMK CU5AC1 SLP092 DENSITY ALT 1900FT
2:00 pm
V
81 °F 15 mi - 250° 250° 12 - 21 kt METAR CYND 021800Z 25012G21KT 15SM SCT069 27/10 A2981 RMK CU4 SLP095 DENSITY ALT 1800FT
1:00 pm
V
79 °F 15 mi 9.500 ft 260° 260° 17 kt METAR CYND 021700Z 26017KT 210V270 15SM FEW070 SCT083 BKN095 26/09 A2982 RMK CU1AC2AC2 SLP100 DENSITY ALT 1600FT
12:00 pm
V
77 °F 15 mi - 230° 230° 11 kt METAR CYND 021600Z 23011KT 15SM FEW070 FEW090 25/09 A2984 RMK CU1AC2 CU TR ACSL ASOCTD SLP105 DENSITY ALT 1600FT
11:00 am
V
75 °F 15 mi - 250° 250° 11 kt METAR CYND 021500Z 25011KT 15SM FEW064 FEW120 FEW240 24/08 A2985 RMK CF1AC2CI1 CF TR CI TR SLP109 DENSITY ALT 1400FT
Ältere Daten

Laden Sie unsere App herunter

Einfacher Zugriff auf das gesamte Flugwetter auf Ihrem Mobiltelefon und Tablet.
Mit vielen Funktionen, die auf der Website nicht verfügbar sind, wie Offline-Unterstützung und eine persönliche Flughafenliste.

Wir und Dritte verfolgen dein Internetverhalten auf unserer Website mit Cookies. Wenn du fortfährst, gehen wir davon aus, dass du mit unserer Cookie-Richtlinie einverstanden bist. Mehr erfahren